createdAt,value
2022-12-19T00:02:02.506Z,78.00
2022-12-19T00:04:29.464Z,77.90
2022-12-19T00:07:00.631Z,77.60
2022-12-19T00:09:28.288Z,77.10
2022-12-19T00:11:55.276Z,77.00
2022-12-19T00:14:22.023Z,76.90
2022-12-19T00:16:48.812Z,76.90
2022-12-19T00:19:16.009Z,76.70
2022-12-19T00:21:45.139Z,77.10
2022-12-19T00:24:20.971Z,76.90
2022-12-19T00:26:51.795Z,76.80
2022-12-19T00:29:18.997Z,77.00
2022-12-19T00:31:45.818Z,77.30
2022-12-19T00:34:15.228Z,77.40
2022-12-19T00:36:42.173Z,77.20
2022-12-19T00:39:10.412Z,77.30
2022-12-19T00:41:41.519Z,77.00
2022-12-19T00:44:16.882Z,76.60
2022-12-19T00:46:52.431Z,76.60
2022-12-19T00:49:20.697Z,76.40
2022-12-19T00:51:47.374Z,76.50
2022-12-19T00:54:14.721Z,76.80
2022-12-19T00:56:42.056Z,77.00
2022-12-19T00:59:10.385Z,76.30
2022-12-19T01:01:40.668Z,76.70
2022-12-19T01:04:28.069Z,76.70
2022-12-19T01:06:57.920Z,76.70
2022-12-19T01:09:32.915Z,76.90
2022-12-19T01:12:18.740Z,76.80
2022-12-19T01:14:47.245Z,76.70
2022-12-19T01:17:18.683Z,77.10
2022-12-19T01:19:47.677Z,76.60
2022-12-19T01:22:14.881Z,76.60
2022-12-19T01:24:42.240Z,76.70
2022-12-19T01:27:11.215Z,76.70
2022-12-19T01:29:52.663Z,76.50
2022-12-19T01:32:20.955Z,76.80
2022-12-19T01:34:48.012Z,76.70
2022-12-19T01:37:17.678Z,76.50
2022-12-19T01:39:47.021Z,76.80
2022-12-19T01:42:23.455Z,76.40
2022-12-19T01:45:13.437Z,76.80
2022-12-19T01:48:02.095Z,77.20
2022-12-19T01:50:47.819Z,77.40
2022-12-19T01:53:39.023Z,77.00
2022-12-19T01:56:20.147Z,77.60
2022-12-19T01:58:50.363Z,77.90
2022-12-19T02:01:26.240Z,77.80
2022-12-19T02:03:55.114Z,78.00
2022-12-19T02:06:22.519Z,78.20
2022-12-19T02:08:52.248Z,78.30
2022-12-19T02:11:21.502Z,78.20
2022-12-19T02:13:50.944Z,78.70
2022-12-19T02:16:43.291Z,78.30
2022-12-19T02:19:32.478Z,78.00
2022-12-19T02:22:32.353Z,78.30
2022-12-19T02:25:23.262Z,78.80
2022-12-19T02:27:58.383Z,78.70
2022-12-19T02:30:37.651Z,79.00
2022-12-19T02:33:18.246Z,78.50
2022-12-19T02:35:54.396Z,78.50
2022-12-19T02:38:50.674Z,78.80
2022-12-19T02:41:43.070Z,79.20
2022-12-19T02:44:29.106Z,79.00
2022-12-19T02:46:59.664Z,78.60
2022-12-19T02:49:33.323Z,78.80
2022-12-19T02:52:22.005Z,78.90
2022-12-19T02:54:55.553Z,78.90
2022-12-19T02:57:28.377Z,79.00
2022-12-19T03:00:12.770Z,79.00
2022-12-19T03:03:01.197Z,79.40
2022-12-19T03:05:32.196Z,79.40
2022-12-19T03:08:02.911Z,79.60
2022-12-19T03:10:39.648Z,79.60
2022-12-19T03:13:38.935Z,79.60
2022-12-19T03:16:08.760Z,79.70
2022-12-19T03:18:35.493Z,79.60
2022-12-19T03:21:02.957Z,79.80
2022-12-19T03:23:30.683Z,80.10
2022-12-19T03:26:07.345Z,80.40
2022-12-19T03:28:47.488Z,80.50
2022-12-19T03:31:16.942Z,80.80
2022-12-19T03:33:45.316Z,80.10
2022-12-19T03:36:17.491Z,80.10
2022-12-19T03:38:45.985Z,79.90
2022-12-19T03:41:16.611Z,80.10
2022-12-19T03:43:45.446Z,80.10
2022-12-19T03:46:22.202Z,80.10
2022-12-19T03:48:51.671Z,80.30
2022-12-19T03:51:46.221Z,80.60
2022-12-19T03:54:25.351Z,80.50
2022-12-19T03:57:10.962Z,80.30
2022-12-19T03:59:50.899Z,80.20
2022-12-19T04:02:21.803Z,79.70
2022-12-19T04:05:02.431Z,79.40
2022-12-19T04:07:30.189Z,79.70
2022-12-19T04:10:00.744Z,79.80
2022-12-19T04:12:44.947Z,80.10
2022-12-19T04:15:15.097Z,80.10
2022-12-19T04:17:41.880Z,79.80
2022-12-19T04:20:12.258Z,80.00
2022-12-19T04:22:58.049Z,80.00
2022-12-19T04:28:35.934Z,79.60
2022-12-19T04:31:04.201Z,79.70
2022-12-19T04:33:32.109Z,79.60
2022-12-19T04:36:00.163Z,79.60
2022-12-19T04:38:29.019Z,79.40
2022-12-19T04:40:56.808Z,79.20
2022-12-19T04:43:23.898Z,79.10
2022-12-19T04:45:56.945Z,79.20
2022-12-19T04:48:24.434Z,79.20
2022-12-19T04:50:53.888Z,79.20
2022-12-19T04:53:20.675Z,79.60
2022-12-19T04:55:47.642Z,79.60
2022-12-19T04:58:18.951Z,79.50
2022-12-19T05:00:48.397Z,79.60
2022-12-19T05:03:15.367Z,79.50
2022-12-19T05:05:42.148Z,79.40
2022-12-19T05:08:09.627Z,79.50
2022-12-19T05:10:38.205Z,79.70
2022-12-19T05:13:05.016Z,79.90
2022-12-19T05:15:32.316Z,79.80
2022-12-19T05:17:59.152Z,80.30
2022-12-19T05:20:28.275Z,79.80
2022-12-19T05:22:55.174Z,79.70
2022-12-19T05:25:21.885Z,79.80
2022-12-19T05:27:48.626Z,80.00
2022-12-19T05:30:15.412Z,80.10
2022-12-19T05:32:42.684Z,80.10
2022-12-19T05:35:09.529Z,80.20
2022-12-19T05:37:41.059Z,80.10
2022-12-19T05:40:08.469Z,79.80
2022-12-19T05:42:35.186Z,79.80
2022-12-19T05:45:07.141Z,79.90
2022-12-19T05:47:34.040Z,80.20
2022-12-19T05:50:04.864Z,80.40
2022-12-19T05:52:32.489Z,80.70
2022-12-19T05:54:59.308Z,80.50
2022-12-19T05:57:26.310Z,80.80
2022-12-19T05:59:52.986Z,81.00
2022-12-19T06:02:19.974Z,81.10
2022-12-19T06:04:46.961Z,80.90
2022-12-19T06:07:17.901Z,80.80
2022-12-19T06:09:48.088Z,81.10
2022-12-19T06:12:17.294Z,81.30
2022-12-19T06:14:44.313Z,81.30
2022-12-19T06:17:11.111Z,81.60
2022-12-19T06:19:38.462Z,81.50
2022-12-19T06:22:07.469Z,81.60
2022-12-19T06:24:34.334Z,81.80
2022-12-19T06:27:03.825Z,81.70
2022-12-19T06:29:31.586Z,81.60
2022-12-19T06:31:59.372Z,81.80
2022-12-19T06:34:55.438Z,81.40
2022-12-19T06:37:22.746Z,81.30
2022-12-19T06:39:51.318Z,81.30
2022-12-19T06:42:28.664Z,81.00
2022-12-19T06:44:56.480Z,81.40
2022-12-19T06:47:26.168Z,81.80
2022-12-19T06:49:53.940Z,81.70
2022-12-19T06:52:20.746Z,81.50
2022-12-19T06:54:48.542Z,81.80
2022-12-19T06:57:19.964Z,81.60
2022-12-19T06:59:46.818Z,81.70
2022-12-19T07:02:31.542Z,81.60
2022-12-19T07:05:02.984Z,81.80
2022-12-19T07:07:30.509Z,81.90
2022-12-19T07:10:00.084Z,81.70
2022-12-19T07:12:27.886Z,81.50
2022-12-19T07:14:57.751Z,81.60
2022-12-19T07:17:26.563Z,81.70
2022-12-19T07:19:58.633Z,82.00
2022-12-19T07:22:29.095Z,82.10
2022-12-19T07:24:56.793Z,82.30
2022-12-19T07:27:23.634Z,81.90
2022-12-19T07:29:50.372Z,81.90
2022-12-19T07:32:17.211Z,81.90
2022-12-19T07:34:43.879Z,81.90
2022-12-19T07:37:10.773Z,82.00
2022-12-19T07:39:37.533Z,81.90
2022-12-19T07:42:04.546Z,82.00
2022-12-19T07:44:40.956Z,82.00
2022-12-19T07:47:10.408Z,81.80
2022-12-19T07:49:37.249Z,81.90
2022-12-19T07:52:09.506Z,81.90
2022-12-19T07:54:36.285Z,81.80
2022-12-19T07:57:03.395Z,81.80
2022-12-19T07:59:34.396Z,81.70
2022-12-19T08:02:08.175Z,81.50
2022-12-19T08:04:37.243Z,81.60
2022-12-19T08:07:04.677Z,81.30
2022-12-19T08:09:32.920Z,81.50
2022-12-19T08:11:59.747Z,81.50
2022-12-19T08:14:26.584Z,81.40
2022-12-19T08:17:19.817Z,81.60
2022-12-19T08:19:40.462Z,81.20
2022-12-19T08:22:09.795Z,81.10
2022-12-19T08:24:38.682Z,81.20
2022-12-19T08:27:05.542Z,81.10
2022-12-19T08:29:32.698Z,81.50
2022-12-19T08:31:59.615Z,81.70
2022-12-19T08:34:27.825Z,81.70
2022-12-19T08:36:55.519Z,81.70
2022-12-19T08:39:22.254Z,81.60
2022-12-19T08:41:49.218Z,81.50
2022-12-19T08:44:16.339Z,81.30
2022-12-19T08:46:49.515Z,81.20
2022-12-19T08:49:20.577Z,80.70
2022-12-19T08:51:49.798Z,80.50
2022-12-19T08:54:16.743Z,80.70
2022-12-19T08:56:46.797Z,80.60
2022-12-19T08:59:18.084Z,80.40
2022-12-19T09:01:56.838Z,80.10
2022-12-19T09:06:00.037Z,79.70
2022-12-19T09:07:16.362Z,79.80
2022-12-19T09:09:44.316Z,80.30
2022-12-19T09:12:14.100Z,80.50
2022-12-19T09:14:46.233Z,80.50
2022-12-19T09:17:13.230Z,80.40
2022-12-19T09:19:45.508Z,80.60
2022-12-19T09:22:16.496Z,80.30
2022-12-19T09:24:45.817Z,79.50
2022-12-19T09:27:14.233Z,79.50
2022-12-19T09:29:44.237Z,79.60
2022-12-19T09:32:11.508Z,79.90
2022-12-19T09:34:39.235Z,79.80
2022-12-19T09:37:08.446Z,80.10
2022-12-19T09:39:36.303Z,79.70
2022-12-19T09:42:08.144Z,79.60
2022-12-19T09:44:37.775Z,79.00
2022-12-19T09:47:13.750Z,79.00
2022-12-19T09:49:43.412Z,79.60
2022-12-19T09:52:38.529Z,80.10
2022-12-19T09:55:09.486Z,80.10
2022-12-19T09:57:55.840Z,80.80
2022-12-19T10:00:37.441Z,80.30
2022-12-19T10:03:16.227Z,80.50
2022-12-19T10:07:06.911Z,80.70
2022-12-19T10:10:11.780Z,80.80
2022-12-19T10:12:45.819Z,80.40
2022-12-19T10:15:03.240Z,80.80
2022-12-19T10:18:06.041Z,81.00
2022-12-19T10:20:42.237Z,81.00
2022-12-19T10:23:12.294Z,81.30
2022-12-19T10:26:06.432Z,81.20
2022-12-19T10:29:05.507Z,81.50
2022-12-19T10:31:57.348Z,81.60
2022-12-19T10:34:32.824Z,81.90
2022-12-19T10:37:25.533Z,81.90
2022-12-19T10:39:54.212Z,82.30
2022-12-19T10:42:45.440Z,82.20
2022-12-19T10:45:23.810Z,82.30
2022-12-19T10:47:56.417Z,82.40
2022-12-19T10:50:26.625Z,82.50
2022-12-19T10:53:07.498Z,82.30
2022-12-19T10:55:50.328Z,82.70
2022-12-19T10:58:23.058Z,83.00
2022-12-19T11:01:13.690Z,83.30
2022-12-19T11:03:48.311Z,83.00
2022-12-19T11:06:39.656Z,82.80
2022-12-19T11:09:36.011Z,83.20
2022-12-19T11:15:19.033Z,82.20
2022-12-19T11:16:04.718Z,82.60
2022-12-19T11:26:16.224Z,82.50
2022-12-19T11:29:31.226Z,82.30
2022-12-19T11:29:31.405Z,82.70
2022-12-19T11:30:36.677Z,82.40
2022-12-19T11:32:43.873Z,82.60
2022-12-19T11:35:37.114Z,82.70
2022-12-19T11:38:08.337Z,82.80
2022-12-19T11:40:49.289Z,82.50
2022-12-19T11:43:47.735Z,82.60
2022-12-19T11:46:36.905Z,82.90
2022-12-19T11:49:32.707Z,83.10
2022-12-19T11:53:02.095Z,83.60
2022-12-19T11:55:23.956Z,83.40
2022-12-19T11:57:57.290Z,83.60
2022-12-19T12:00:27.069Z,83.60
2022-12-19T12:03:30.539Z,83.80
2022-12-19T12:05:58.506Z,83.80
2022-12-19T12:10:28.611Z,84.30
2022-12-19T12:15:00.889Z,84.60
2022-12-19T12:28:53.377Z,83.70
2022-12-19T12:31:14.693Z,83.30
2022-12-19T12:31:26.087Z,83.40
2022-12-19T12:31:27.720Z,83.80
2022-12-19T12:31:42.783Z,84.10
2022-12-19T12:31:49.077Z,83.90
2022-12-19T12:35:34.974Z,84.10
2022-12-19T12:38:36.275Z,84.70
2022-12-19T12:41:15.100Z,84.30
2022-12-19T12:44:08.397Z,84.70
2022-12-19T12:47:02.397Z,85.00
2022-12-19T12:49:44.616Z,85.00
2022-12-19T12:52:24.152Z,84.70
2022-12-19T12:54:51.557Z,84.90
2022-12-19T12:57:27.553Z,85.60
2022-12-19T13:00:16.947Z,85.70
2022-12-19T13:03:11.302Z,86.00
2022-12-19T13:05:54.052Z,85.20
2022-12-19T13:08:39.530Z,85.40
2022-12-19T13:11:37.129Z,85.20
2022-12-19T13:14:06.443Z,85.10
2022-12-19T13:16:45.467Z,85.40
2022-12-19T13:19:27.951Z,86.00
2022-12-19T13:22:04.961Z,86.30
2022-12-19T13:24:47.189Z,86.50
2022-12-19T13:27:38.130Z,86.50
2022-12-19T13:30:08.085Z,86.60
2022-12-19T13:32:40.738Z,87.10
2022-12-19T13:36:59.915Z,87.40
2022-12-19T13:39:56.399Z,87.60
2022-12-19T13:41:25.937Z,86.90
2022-12-19T13:43:59.843Z,86.70
2022-12-19T13:46:36.412Z,86.60
2022-12-19T13:49:08.359Z,86.50
2022-12-19T13:51:57.150Z,86.60
2022-12-19T13:54:32.948Z,86.50
2022-12-19T13:57:06.590Z,86.30
2022-12-19T13:59:39.989Z,86.50
2022-12-19T14:02:28.314Z,86.90
2022-12-19T14:04:56.251Z,87.40
2022-12-19T14:07:41.833Z,87.60
2022-12-19T14:11:32.474Z,87.60
2022-12-19T14:13:45.556Z,87.40
2022-12-19T14:16:19.813Z,87.10
2022-12-19T14:18:50.568Z,87.20
2022-12-19T14:22:05.793Z,87.10
2022-12-19T14:24:23.381Z,86.70
2022-12-19T14:28:17.243Z,87.00
2022-12-19T14:30:30.636Z,87.10
2022-12-19T14:33:45.423Z,87.40
2022-12-19T14:36:11.170Z,87.80
2022-12-19T14:39:25.991Z,88.00
2022-12-19T14:42:06.850Z,88.30
2022-12-19T14:54:03.817Z,88.50
2022-12-19T14:54:04.859Z,88.50
2022-12-19T14:54:11.034Z,88.50
2022-12-19T14:54:34.137Z,88.70
2022-12-19T14:59:05.933Z,88.50
2022-12-19T15:01:37.230Z,88.70
2022-12-19T15:04:50.230Z,88.50
2022-12-19T15:07:13.226Z,88.40
2022-12-19T15:11:06.499Z,88.30
2022-12-19T15:14:46.844Z,88.30
2022-12-19T15:16:06.323Z,88.40
2022-12-19T15:18:33.390Z,88.50
2022-12-19T15:21:04.346Z,88.80
2022-12-19T15:23:32.937Z,88.70
2022-12-19T15:26:13.184Z,88.40
2022-12-19T15:28:51.508Z,88.60
2022-12-19T15:31:35.764Z,88.90
2022-12-19T15:34:44.442Z,88.80
2022-12-19T15:37:17.112Z,88.60
2022-12-19T15:39:44.954Z,88.50
2022-12-19T15:42:24.739Z,88.30
2022-12-19T15:44:58.062Z,88.10
2022-12-19T15:47:34.736Z,88.10
2022-12-19T15:50:14.469Z,88.10
2022-12-19T15:52:41.419Z,88.00
2022-12-19T15:55:18.605Z,87.90
2022-12-19T15:57:54.773Z,87.80
2022-12-19T16:00:28.129Z,87.90
2022-12-19T16:03:23.560Z,87.80
2022-12-19T16:05:43.225Z,87.70
2022-12-19T16:08:18.793Z,87.80
2022-12-19T16:11:01.135Z,87.90
2022-12-19T16:13:31.817Z,88.20
2022-12-19T16:15:59.685Z,88.30
2022-12-19T16:18:27.150Z,88.50
2022-12-19T16:20:54.052Z,88.40
2022-12-19T16:23:24.635Z,88.30
2022-12-19T16:25:52.007Z,88.10
2022-12-19T16:28:26.827Z,88.10
2022-12-19T16:30:56.940Z,87.90
2022-12-19T16:33:29.247Z,87.90
2022-12-19T16:36:05.707Z,87.80
2022-12-19T16:38:33.535Z,87.90
2022-12-19T16:41:02.176Z,88.00
2022-12-19T16:43:33.298Z,87.90
2022-12-19T16:46:02.090Z,87.80
2022-12-19T16:48:29.859Z,87.80
2022-12-19T16:50:58.641Z,87.90
2022-12-19T16:53:25.676Z,87.80
2022-12-19T16:55:56.283Z,87.80
2022-12-19T16:58:26.593Z,87.70
2022-12-19T17:00:56.860Z,87.50
2022-12-19T17:03:34.574Z,87.60
2022-12-19T17:06:03.450Z,87.60
2022-12-19T17:08:30.415Z,87.60
2022-12-19T17:10:58.571Z,87.70
2022-12-19T17:13:25.933Z,87.90
2022-12-19T17:15:57.054Z,87.90
2022-12-19T17:18:50.517Z,87.90
2022-12-19T17:21:21.376Z,88.00
2022-12-19T17:23:49.773Z,87.80
2022-12-19T17:26:18.232Z,87.90
2022-12-19T17:28:48.484Z,87.90
2022-12-19T17:31:33.219Z,87.80
2022-12-19T17:34:02.721Z,87.80
2022-12-19T17:36:37.577Z,87.90
2022-12-19T17:39:20.313Z,88.10
2022-12-19T17:41:59.208Z,88.00
2022-12-19T17:44:28.124Z,87.90
2022-12-19T17:46:56.112Z,87.70
2022-12-19T17:49:39.338Z,87.70
2022-12-19T17:52:13.430Z,87.80
2022-12-19T17:54:40.836Z,88.30
2022-12-19T17:57:14.469Z,87.60
2022-12-19T17:59:42.246Z,87.80
2022-12-19T18:02:27.727Z,87.90
2022-12-19T18:04:54.725Z,87.70
2022-12-19T18:07:21.589Z,87.80
2022-12-19T18:09:48.550Z,87.80
2022-12-19T18:12:15.815Z,87.70
2022-12-19T18:14:42.589Z,87.60
2022-12-19T18:17:13.841Z,87.70
2022-12-19T18:19:40.847Z,87.70
2022-12-19T18:22:14.597Z,87.50
2022-12-19T18:24:44.822Z,87.40
2022-12-19T18:27:13.729Z,87.30
2022-12-19T18:30:26.571Z,87.30
2022-12-19T18:33:46.049Z,87.20
2022-12-19T18:36:40.156Z,87.30
2022-12-19T18:39:20.640Z,87.10
2022-12-19T18:41:48.404Z,86.80
2022-12-19T18:44:15.454Z,86.50
2022-12-19T18:46:43.848Z,86.40
2022-12-19T18:49:15.524Z,86.30
2022-12-19T18:51:42.739Z,86.20
2022-12-19T18:54:19.295Z,86.30
2022-12-19T18:56:46.651Z,86.30
2022-12-19T18:59:13.966Z,86.40
2022-12-19T19:01:46.547Z,86.70
2022-12-19T19:04:18.067Z,87.00
2022-12-19T19:06:51.121Z,87.30
2022-12-19T19:09:19.616Z,87.40
2022-12-19T19:12:06.113Z,87.50
2022-12-19T19:14:35.495Z,88.00
2022-12-19T19:17:06.210Z,88.30
2022-12-19T19:19:33.313Z,88.50
2022-12-19T19:22:00.413Z,88.40
2022-12-19T19:24:28.369Z,88.30
2022-12-19T19:26:55.644Z,88.30
2022-12-19T19:29:22.898Z,88.20
2022-12-19T19:31:51.700Z,88.00
2022-12-19T19:34:24.157Z,87.90
2022-12-19T19:36:58.643Z,87.30
2022-12-19T19:39:27.635Z,87.20
2022-12-19T19:41:57.302Z,86.80
2022-12-19T19:44:24.996Z,86.30
2022-12-19T19:46:51.949Z,86.20
2022-12-19T19:49:23.536Z,86.10
2022-12-19T19:51:50.646Z,85.90
2022-12-19T19:54:19.805Z,86.10
2022-12-19T19:56:46.580Z,86.30
2022-12-19T19:59:13.798Z,86.50
2022-12-19T20:01:40.584Z,86.80
2022-12-19T20:04:07.487Z,86.90
2022-12-19T20:06:35.125Z,86.80
2022-12-19T20:09:03.347Z,86.50
2022-12-19T20:11:30.803Z,86.30
2022-12-19T20:13:57.899Z,86.20
2022-12-19T20:16:25.150Z,86.10
2022-12-19T20:18:53.179Z,85.80
2022-12-19T20:21:20.612Z,85.40
2022-12-19T20:23:50.394Z,85.10
2022-12-19T20:26:17.971Z,85.00
2022-12-19T20:28:49.514Z,84.60
2022-12-19T20:31:23.691Z,84.70
2022-12-19T20:33:55.754Z,85.00
2022-12-19T20:36:23.613Z,85.30
2022-12-19T20:38:50.459Z,85.50
2022-12-19T20:41:17.978Z,85.70
2022-12-19T20:43:45.131Z,85.60
2022-12-19T20:46:15.744Z,85.20
2022-12-19T20:48:43.199Z,85.00
2022-12-19T20:51:10.176Z,85.10
2022-12-19T20:53:39.361Z,85.30
2022-12-19T20:56:09.109Z,85.40
2022-12-19T20:58:37.839Z,85.20
2022-12-19T21:01:14.193Z,85.20
2022-12-19T21:03:41.203Z,85.30
2022-12-19T21:06:09.862Z,85.00
2022-12-19T21:08:37.647Z,84.70
2022-12-19T21:11:08.179Z,84.40
2022-12-19T21:13:39.399Z,84.20
2022-12-19T21:16:08.978Z,84.10
2022-12-19T21:18:38.177Z,84.20
2022-12-19T21:21:06.407Z,84.20
2022-12-19T21:23:34.081Z,84.20
2022-12-19T21:26:05.154Z,84.10
2022-12-19T21:28:33.505Z,84.10
2022-12-19T21:31:19.558Z,83.70
2022-12-19T21:33:47.162Z,83.70
2022-12-19T21:36:20.277Z,83.60
2022-12-19T21:38:49.335Z,83.10
2022-12-19T21:41:18.962Z,82.40
2022-12-19T21:43:48.681Z,82.40
2022-12-19T21:46:17.434Z,82.60
2022-12-19T21:48:47.282Z,83.00
2022-12-19T21:51:18.673Z,83.30
2022-12-19T21:53:48.072Z,83.60
2022-12-19T21:56:24.326Z,83.80
2022-12-19T21:58:52.702Z,83.80
2022-12-19T22:01:20.215Z,84.10
2022-12-19T22:03:47.563Z,84.20
2022-12-19T22:06:27.339Z,84.40
2022-12-19T22:08:55.579Z,84.20
2022-12-19T22:11:22.584Z,84.20
2022-12-19T22:13:52.818Z,84.10
2022-12-19T22:16:20.326Z,84.00
2022-12-19T22:18:47.441Z,84.00
2022-12-19T22:21:15.788Z,83.80
2022-12-19T22:23:42.596Z,83.80
2022-12-19T22:26:13.796Z,83.80
2022-12-19T22:28:43.713Z,83.70
2022-12-19T22:31:17.842Z,83.90
2022-12-19T22:33:44.744Z,83.70
2022-12-19T22:36:15.389Z,83.60
2022-12-19T22:38:44.914Z,83.50
2022-12-19T22:41:14.465Z,83.70
2022-12-19T22:43:42.285Z,83.50
2022-12-19T22:46:26.183Z,83.50
2022-12-19T22:48:56.418Z,83.40
2022-12-19T22:51:23.359Z,83.20
2022-12-19T22:53:50.322Z,83.10
2022-12-19T22:56:22.955Z,83.00
2022-12-19T22:58:52.067Z,82.80
2022-12-19T23:01:23.245Z,82.60
2022-12-19T23:03:52.816Z,82.40
2022-12-19T23:06:20.514Z,82.00
2022-12-19T23:08:49.899Z,82.00
2022-12-19T23:11:19.726Z,82.60
2022-12-19T23:13:51.216Z,81.80
2022-12-19T23:16:18.646Z,81.80
2022-12-19T23:18:45.766Z,81.30
2022-12-19T23:21:15.153Z,81.50
2022-12-19T23:23:46.689Z,81.60
2022-12-19T23:26:22.324Z,81.40
2022-12-19T23:29:04.934Z,81.40
2022-12-19T23:31:33.454Z,81.30
2022-12-19T23:34:03.486Z,81.30
2022-12-19T23:37:09.083Z,81.20
2022-12-19T23:39:17.099Z,81.30
2022-12-19T23:41:44.205Z,81.10
2022-12-19T23:44:11.515Z,81.70
2022-12-19T23:46:38.608Z,81.60
2022-12-19T23:49:05.865Z,81.60
2022-12-19T23:51:32.871Z,81.70
2022-12-19T23:54:00.064Z,82.00
2022-12-19T23:56:29.231Z,82.30
2022-12-19T23:58:56.598Z,82.60
